createdAt,value
2023-02-14T00:00:15.450Z,102612.77
2023-02-14T00:02:52.494Z,102610.65
2023-02-14T00:05:05.053Z,102613.30
2023-02-14T00:07:17.148Z,102612.09
2023-02-14T00:09:28.831Z,102615.79
2023-02-14T00:11:41.172Z,102610.92
2023-02-14T00:14:11.486Z,102613.50
2023-02-14T00:16:23.317Z,102607.69
2023-02-14T00:18:55.729Z,102611.65
2023-02-14T00:21:07.203Z,102611.65
2023-02-14T00:23:18.894Z,102608.08
2023-02-14T00:25:30.782Z,102612.46
2023-02-14T00:27:42.677Z,102610.08
2023-02-14T00:29:56.668Z,102612.41
2023-02-14T00:32:08.774Z,102616.41
2023-02-14T00:34:21.426Z,102616.11
2023-02-14T00:36:34.239Z,102615.20
2023-02-14T00:38:46.336Z,102616.91
2023-02-14T00:40:58.359Z,102618.91
2023-02-14T00:43:10.222Z,102614.77
2023-02-14T00:45:22.422Z,102618.23
2023-02-14T00:47:34.322Z,102620.15
2023-02-14T00:49:46.041Z,102623.43
2023-02-14T00:51:57.893Z,102630.28
2023-02-14T00:54:09.480Z,102628.86
2023-02-14T00:56:21.780Z,102626.66
2023-02-14T00:58:33.949Z,102629.16
2023-02-14T01:00:45.994Z,102632.08
2023-02-14T01:02:58.419Z,102634.30
2023-02-14T01:05:10.682Z,102633.70
2023-02-14T01:07:22.883Z,102627.11
2023-02-14T01:09:34.467Z,102623.15
2023-02-14T01:11:48.917Z,102623.10
2023-02-14T01:14:01.131Z,102622.10
2023-02-14T01:16:15.670Z,102621.40
2023-02-14T01:18:27.564Z,102617.47
2023-02-14T01:20:39.762Z,102615.41
2023-02-14T01:22:51.859Z,102613.65
2023-02-14T01:25:07.287Z,102613.16
2023-02-14T01:27:19.029Z,102610.93
2023-02-14T01:29:32.043Z,102612.82
2023-02-14T01:31:45.232Z,102611.98
2023-02-14T01:33:58.285Z,102610.63
2023-02-14T01:36:25.145Z,102607.38
2023-02-14T01:38:37.431Z,102601.98
2023-02-14T01:40:49.446Z,102602.86
2023-02-14T01:43:01.426Z,102608.65
2023-02-14T01:45:26.699Z,102612.96
2023-02-14T01:47:41.500Z,102603.19
2023-02-14T01:49:59.554Z,102602.58
2023-02-14T01:52:20.133Z,102604.77
2023-02-14T01:54:35.596Z,102608.13
2023-02-14T01:56:54.051Z,102602.52
2023-02-14T01:59:10.550Z,102603.33
2023-02-14T02:01:23.899Z,102598.48
2023-02-14T02:03:50.816Z,102593.88
2023-02-14T02:06:15.100Z,102591.39
2023-02-14T02:08:27.512Z,102595.81
2023-02-14T02:10:39.296Z,102597.31
2023-02-14T02:12:53.746Z,102593.42
2023-02-14T02:15:07.201Z,102595.14
2023-02-14T02:17:41.802Z,102596.80
2023-02-14T02:20:31.782Z,102595.45
2023-02-14T02:23:25.149Z,102595.56
2023-02-14T02:25:58.955Z,102592.64
2023-02-14T02:28:48.635Z,102592.61
2023-02-14T02:31:16.076Z,102591.89
2023-02-14T02:33:39.515Z,102590.17
2023-02-14T02:36:22.679Z,102590.21
2023-02-14T02:39:00.785Z,102584.83
2023-02-14T02:41:30.299Z,102583.83
2023-02-14T02:43:56.315Z,102578.90
2023-02-14T02:46:39.953Z,102579.27
2023-02-14T02:49:01.571Z,102577.50
2023-02-14T02:51:42.245Z,102577.85
2023-02-14T02:54:04.783Z,102578.90
2023-02-14T02:56:45.787Z,102582.89
2023-02-14T02:59:04.980Z,102581.58
2023-02-14T03:01:22.185Z,102584.08
2023-02-14T03:03:56.249Z,102577.21
2023-02-14T03:06:08.243Z,102581.22
2023-02-14T03:08:20.441Z,102578.52
2023-02-14T03:10:38.185Z,102582.67
2023-02-14T03:13:05.935Z,102580.58
2023-02-14T03:15:59.803Z,102580.48
2023-02-14T03:18:39.669Z,102582.08
2023-02-14T03:20:55.245Z,102588.80
2023-02-14T03:23:22.444Z,102591.45
2023-02-14T03:26:19.859Z,102602.70
2023-02-14T03:28:46.384Z,102605.95
2023-02-14T03:31:08.335Z,102599.25
2023-02-14T03:33:32.314Z,102597.64
2023-02-14T03:36:02.309Z,102597.54
2023-02-14T03:38:36.625Z,102596.44
2023-02-14T03:41:04.198Z,102597.94
2023-02-14T03:43:31.048Z,102592.75
2023-02-14T03:45:49.090Z,102594.66
2023-02-14T03:48:06.693Z,102590.60
2023-02-14T03:50:20.511Z,102593.70
2023-02-14T03:52:34.367Z,102590.58
2023-02-14T03:54:52.462Z,102595.36
2023-02-14T03:57:25.186Z,102595.85
2023-02-14T03:59:36.872Z,102595.79
2023-02-14T04:02:08.014Z,102594.11
2023-02-14T04:04:24.750Z,102596.40
2023-02-14T04:06:36.512Z,102595.67
2023-02-14T04:08:48.507Z,102590.02
2023-02-14T04:11:03.074Z,102590.77
2023-02-14T04:13:14.848Z,102586.89
2023-02-14T04:15:26.847Z,102583.09
2023-02-14T04:17:58.093Z,102589.55
2023-02-14T04:20:10.605Z,102591.36
2023-02-14T04:22:22.282Z,102593.39
2023-02-14T04:24:33.971Z,102595.01
2023-02-14T04:27:10.315Z,102600.67
2023-02-14T04:29:23.354Z,102600.36
2023-02-14T04:31:35.264Z,102598.01
2023-02-14T04:33:48.230Z,102599.81
2023-02-14T04:36:00.793Z,102599.61
2023-02-14T04:38:12.870Z,102598.45
2023-02-14T04:40:24.965Z,102602.07
2023-02-14T04:42:37.077Z,102603.55
2023-02-14T04:44:48.852Z,102603.88
2023-02-14T04:47:01.157Z,102598.02
2023-02-14T04:49:13.051Z,102599.10
2023-02-14T04:51:27.496Z,102603.52
2023-02-14T04:53:40.607Z,102598.88
2023-02-14T04:55:52.717Z,102598.51
2023-02-14T04:58:04.720Z,102595.03
2023-02-14T05:00:16.812Z,102595.52
2023-02-14T05:02:28.540Z,102596.08
2023-02-14T05:04:40.618Z,102596.52
2023-02-14T05:06:52.600Z,102595.73
2023-02-14T05:09:04.580Z,102594.26
2023-02-14T05:11:16.985Z,102595.27
2023-02-14T05:13:28.792Z,102595.98
2023-02-14T05:15:40.583Z,102597.59
2023-02-14T05:17:52.252Z,102595.45
2023-02-14T05:20:06.001Z,102591.94
2023-02-14T05:22:18.617Z,102592.25
2023-02-14T05:24:30.488Z,102590.70
2023-02-14T05:26:42.383Z,102599.34
2023-02-14T05:28:54.182Z,102603.48
2023-02-14T05:31:06.633Z,102596.15
2023-02-14T05:33:18.673Z,102595.42
2023-02-14T05:35:30.606Z,102600.77
2023-02-14T05:37:42.456Z,102608.67
2023-02-14T05:39:54.653Z,102608.21
2023-02-14T05:42:06.855Z,102606.64
2023-02-14T05:44:19.054Z,102603.30
2023-02-14T05:46:30.844Z,102604.65
2023-02-14T05:48:42.535Z,102608.55
2023-02-14T05:50:54.431Z,102607.51
2023-02-14T05:53:06.423Z,102607.70
2023-02-14T05:55:18.210Z,102606.63
2023-02-14T05:57:29.918Z,102607.10
2023-02-14T05:59:41.690Z,102607.99
2023-02-14T06:01:53.654Z,102613.25
2023-02-14T06:04:05.477Z,102612.07
2023-02-14T06:06:17.265Z,102615.01
2023-02-14T06:08:29.059Z,102619.47
2023-02-14T06:10:40.743Z,102617.31
2023-02-14T06:12:53.851Z,102622.63
2023-02-14T06:15:06.481Z,102626.16
2023-02-14T06:17:18.476Z,102624.73
2023-02-14T06:19:30.234Z,102627.52
2023-02-14T06:21:41.949Z,102624.84
2023-02-14T06:23:54.154Z,102629.33
2023-02-14T06:26:06.245Z,102627.89
2023-02-14T06:28:18.034Z,102631.38
2023-02-14T06:30:29.933Z,102635.23
2023-02-14T06:32:42.037Z,102637.11
2023-02-14T06:34:53.709Z,102631.34
2023-02-14T06:37:05.336Z,102628.50
2023-02-14T06:39:17.801Z,102630.63
2023-02-14T06:41:30.003Z,102637.09
2023-02-14T06:43:41.688Z,102635.91
2023-02-14T06:45:54.318Z,102639.83
2023-02-14T06:48:06.295Z,102637.77
2023-02-14T06:50:18.292Z,102640.48
2023-02-14T06:52:30.091Z,102647.77
2023-02-14T06:54:42.055Z,102649.59
2023-02-14T06:56:53.570Z,102648.06
2023-02-14T06:59:05.876Z,102644.60
2023-02-14T07:01:17.663Z,102646.11
2023-02-14T07:03:29.231Z,102651.77
2023-02-14T07:05:41.532Z,102652.14
2023-02-14T07:07:53.530Z,102654.39
2023-02-14T07:10:06.458Z,102655.95
2023-02-14T07:12:18.335Z,102655.99
2023-02-14T07:14:30.231Z,102654.52
2023-02-14T07:16:41.922Z,102658.17
2023-02-14T07:18:53.811Z,102660.52
2023-02-14T07:21:06.625Z,102667.42
2023-02-14T07:23:19.127Z,102668.79
2023-02-14T07:25:30.816Z,102669.61
2023-02-14T07:27:43.636Z,102662.77
2023-02-14T07:29:55.565Z,102668.42
2023-02-14T07:32:07.696Z,102667.18
2023-02-14T07:34:19.432Z,102667.41
2023-02-14T07:36:31.203Z,102671.77
2023-02-14T07:38:42.783Z,102676.05
2023-02-14T07:40:54.470Z,102672.21
2023-02-14T07:43:08.111Z,102678.05
2023-02-14T07:45:22.233Z,102682.56
2023-02-14T07:47:34.630Z,102676.67
2023-02-14T07:49:46.236Z,102676.98
2023-02-14T07:51:58.130Z,102678.91
2023-02-14T07:54:09.828Z,102683.20
2023-02-14T07:56:34.407Z,102683.95
2023-02-14T07:58:46.914Z,102686.70
2023-02-14T08:00:59.076Z,102686.71
2023-02-14T08:03:11.415Z,102686.88
2023-02-14T08:05:23.772Z,102688.10
2023-02-14T08:07:36.225Z,102686.70
2023-02-14T08:09:48.025Z,102677.84
2023-02-14T08:12:18.643Z,102674.89
2023-02-14T08:14:30.432Z,102681.56
2023-02-14T08:16:42.531Z,102682.30
2023-02-14T08:18:56.482Z,102673.94
2023-02-14T08:21:10.922Z,102671.69
2023-02-14T08:23:24.563Z,102675.61
2023-02-14T08:25:36.375Z,102680.23
2023-02-14T08:27:49.157Z,102685.49
2023-02-14T08:30:01.079Z,102678.23
2023-02-14T08:32:13.243Z,102679.64
2023-02-14T08:34:25.141Z,102683.35
2023-02-14T08:36:37.032Z,102685.25
2023-02-14T08:38:49.231Z,102692.27
2023-02-14T08:41:04.408Z,102696.64
2023-02-14T08:43:18.240Z,102696.12
2023-02-14T08:45:30.436Z,102700.77
2023-02-14T08:47:42.343Z,102696.55
2023-02-14T08:49:54.021Z,102693.25
2023-02-14T08:52:05.806Z,102693.56
2023-02-14T08:54:17.703Z,102696.41
2023-02-14T08:56:29.387Z,102697.89
2023-02-14T08:58:41.590Z,102699.80
2023-02-14T09:00:53.219Z,102692.63
2023-02-14T09:03:05.477Z,102692.45
2023-02-14T09:05:18.025Z,102692.60
2023-02-14T09:07:29.919Z,102695.46
2023-02-14T09:09:41.426Z,102700.16
2023-02-14T09:11:53.146Z,102694.36
2023-02-14T09:14:04.943Z,102692.80
2023-02-14T09:16:18.013Z,102693.29
2023-02-14T09:18:30.254Z,102704.91
2023-02-14T09:20:44.785Z,102706.59
2023-02-14T09:22:57.317Z,102701.84
2023-02-14T09:25:09.530Z,102700.52
2023-02-14T09:27:21.517Z,102705.39
2023-02-14T09:29:33.954Z,102709.41
2023-02-14T09:31:45.675Z,102703.66
2023-02-14T09:33:58.522Z,102698.48
2023-02-14T09:36:28.845Z,102702.92
2023-02-14T09:38:41.351Z,102698.85
2023-02-14T09:40:53.754Z,102703.30
2023-02-14T09:43:39.345Z,102705.03
2023-02-14T09:45:56.794Z,102706.12
2023-02-14T09:48:26.105Z,102709.73
2023-02-14T09:50:45.836Z,102705.99
2023-02-14T09:53:06.742Z,102703.21
2023-02-14T09:55:19.351Z,102699.11
2023-02-14T09:57:37.182Z,102696.77
2023-02-14T10:00:00.362Z,102690.68
2023-02-14T10:02:30.313Z,102692.72
2023-02-14T10:05:06.634Z,102693.66
2023-02-14T10:07:34.283Z,102697.02
2023-02-14T10:10:10.646Z,102689.05
2023-02-14T10:12:27.787Z,102685.20
2023-02-14T10:14:41.236Z,102683.98
2023-02-14T10:17:08.237Z,102689.89
2023-02-14T10:19:34.977Z,102691.55
2023-02-14T10:22:05.541Z,102686.81
2023-02-14T10:24:26.946Z,102681.06
2023-02-14T10:26:41.480Z,102677.16
2023-02-14T10:28:54.496Z,102677.52
2023-02-14T10:31:26.348Z,102675.98
2023-02-14T10:33:41.148Z,102670.30
2023-02-14T10:36:00.922Z,102669.35
2023-02-14T10:38:50.367Z,102669.27
2023-02-14T10:41:21.930Z,102671.45
2023-02-14T10:43:46.211Z,102670.45
2023-02-14T10:46:18.009Z,102668.61
2023-02-14T10:48:36.510Z,102666.28
2023-02-14T10:51:04.913Z,102668.90
2023-02-14T10:53:48.628Z,102666.61
2023-02-14T10:56:06.185Z,102666.33
2023-02-14T10:58:21.262Z,102668.58
2023-02-14T11:00:38.031Z,102672.70
2023-02-14T11:02:52.746Z,102664.34
2023-02-14T11:05:06.114Z,102658.68
2023-02-14T11:07:21.439Z,102658.74
2023-02-14T11:09:33.141Z,102653.33
2023-02-14T11:11:50.806Z,102654.23
2023-02-14T11:14:22.765Z,102656.77
2023-02-14T11:16:37.579Z,102654.30
2023-02-14T11:19:16.353Z,102657.23
2023-02-14T11:21:38.070Z,102655.50
2023-02-14T11:23:51.615Z,102649.14
2023-02-14T11:26:09.237Z,102649.46
2023-02-14T11:28:22.143Z,102650.48
2023-02-14T11:30:38.756Z,102648.73
2023-02-14T11:32:55.667Z,102641.23
2023-02-14T11:35:18.755Z,102641.92
2023-02-14T11:37:44.231Z,102644.17
2023-02-14T11:39:59.607Z,102644.08
2023-02-14T11:42:12.934Z,102641.67
2023-02-14T11:44:27.994Z,102641.91
2023-02-14T11:46:52.362Z,102638.91
2023-02-14T11:49:23.422Z,102643.61
2023-02-14T11:51:40.787Z,102643.58
2023-02-14T11:53:56.213Z,102638.88
2023-02-14T11:56:08.024Z,102637.54
2023-02-14T11:58:40.099Z,102634.73
2023-02-14T12:00:54.471Z,102634.33
2023-02-14T12:03:07.128Z,102628.79
2023-02-14T12:05:33.977Z,102625.78
2023-02-14T12:07:47.450Z,102623.98
2023-02-14T12:10:29.626Z,102623.73
2023-02-14T12:13:09.679Z,102625.75
2023-02-14T12:15:29.396Z,102627.17
2023-02-14T12:17:44.607Z,102622.71
2023-02-14T12:20:09.008Z,102615.46
2023-02-14T12:22:37.678Z,102613.15
2023-02-14T12:24:59.298Z,102614.63
2023-02-14T12:27:34.758Z,102616.88
2023-02-14T12:29:54.520Z,102609.88
2023-02-14T12:32:33.748Z,102606.48
2023-02-14T12:34:45.945Z,102614.41
2023-02-14T12:37:09.825Z,102612.25
2023-02-14T12:39:43.323Z,102612.27
2023-02-14T12:42:16.817Z,102605.39
2023-02-14T12:44:54.718Z,102606.39
2023-02-14T12:47:21.254Z,102605.55
2023-02-14T12:50:02.741Z,102606.50
2023-02-14T12:52:33.680Z,102603.22
2023-02-14T12:54:58.039Z,102603.30
2023-02-14T12:57:27.376Z,102600.71
2023-02-14T12:59:57.895Z,102598.10
2023-02-14T13:02:47.813Z,102595.91
2023-02-14T13:05:08.888Z,102590.90
2023-02-14T13:07:49.352Z,102595.06
2023-02-14T13:10:19.471Z,102594.30
2023-02-14T13:12:39.663Z,102596.33
2023-02-14T13:15:03.221Z,102594.05
2023-02-14T13:17:25.356Z,102587.85
2023-02-14T13:19:50.577Z,102587.95
2023-02-14T13:22:04.978Z,102594.08
2023-02-14T13:24:21.955Z,102590.02
2023-02-14T13:26:40.575Z,102587.77
2023-02-14T13:29:01.473Z,102591.55
2023-02-14T13:31:15.255Z,102596.42
2023-02-14T13:33:38.168Z,102594.87
2023-02-14T13:35:52.242Z,102592.36
2023-02-14T13:38:08.606Z,102593.36
2023-02-14T13:40:26.551Z,102586.70
2023-02-14T13:42:50.724Z,102587.09
2023-02-14T13:45:02.399Z,102588.48
2023-02-14T13:47:20.434Z,102589.18
2023-02-14T13:49:34.807Z,102588.10
2023-02-14T13:51:54.362Z,102590.48
2023-02-14T13:54:40.537Z,102585.48
2023-02-14T13:56:52.651Z,102590.86
2023-02-14T13:59:06.414Z,102587.05
2023-02-14T14:01:31.415Z,102589.11
2023-02-14T14:03:43.397Z,102587.23
2023-02-14T14:06:05.925Z,102584.39
2023-02-14T14:08:20.999Z,102584.84
2023-02-14T14:10:45.019Z,102582.03
2023-02-14T14:12:56.867Z,102585.23
2023-02-14T14:15:15.139Z,102579.31
2023-02-14T14:17:27.927Z,102575.48
2023-02-14T14:19:41.649Z,102575.84
2023-02-14T14:22:05.755Z,102576.95
2023-02-14T14:24:17.209Z,102570.75
2023-02-14T14:26:35.757Z,102567.73
2023-02-14T14:28:47.854Z,102564.27
2023-02-14T14:31:00.187Z,102566.88
2023-02-14T14:33:16.247Z,102566.87
2023-02-14T14:35:27.938Z,102559.40
2023-02-14T14:37:54.672Z,102558.39
2023-02-14T14:40:09.683Z,102561.65
2023-02-14T14:42:24.706Z,102559.67
2023-02-14T14:44:38.031Z,102561.42
2023-02-14T14:46:49.775Z,102564.42
2023-02-14T14:49:02.533Z,102565.21
2023-02-14T14:51:36.138Z,102566.23
2023-02-14T14:53:52.844Z,102570.23
2023-02-14T14:56:04.740Z,102567.63
2023-02-14T14:58:39.217Z,102569.42
2023-02-14T15:00:51.923Z,102567.33
2023-02-14T15:03:09.810Z,102565.73
2023-02-14T15:05:32.249Z,102561.42
2023-02-14T15:07:44.344Z,102555.73
2023-02-14T15:09:56.294Z,102553.70
2023-02-14T15:12:28.915Z,102551.84
2023-02-14T15:14:46.302Z,102548.61
2023-02-14T15:17:04.521Z,102544.63
2023-02-14T15:19:39.103Z,102544.10
2023-02-14T15:21:51.000Z,102538.16
2023-02-14T15:24:04.013Z,102536.75
2023-02-14T15:26:19.033Z,102535.44
2023-02-14T15:28:35.440Z,102533.99
2023-02-14T15:30:56.590Z,102534.77
2023-02-14T15:33:11.172Z,102534.86
2023-02-14T15:35:27.584Z,102530.08
2023-02-14T15:37:39.946Z,102525.29
2023-02-14T15:39:56.143Z,102520.21
2023-02-14T15:42:26.051Z,102522.85
2023-02-14T15:44:37.844Z,102524.40
2023-02-14T15:46:59.875Z,102525.69
2023-02-14T15:49:19.765Z,102531.56
2023-02-14T15:51:36.451Z,102531.69
2023-02-14T15:54:03.519Z,102527.60
2023-02-14T15:56:21.965Z,102533.94
2023-02-14T15:58:36.401Z,102531.83
2023-02-14T16:00:49.419Z,102530.71
2023-02-14T16:03:12.471Z,102532.42
2023-02-14T16:05:27.537Z,102531.36
2023-02-14T16:07:39.348Z,102534.03
2023-02-14T16:10:23.589Z,102536.80
2023-02-14T16:12:36.810Z,102539.05
2023-02-14T16:15:10.910Z,102541.55
2023-02-14T16:17:34.792Z,102542.23
2023-02-14T16:19:46.677Z,102541.73
2023-02-14T16:21:58.670Z,102542.73
2023-02-14T16:24:11.642Z,102546.27
2023-02-14T16:26:23.688Z,102548.27
2023-02-14T16:28:38.878Z,102546.55
2023-02-14T16:30:57.418Z,102549.94
2023-02-14T16:33:16.086Z,102552.65
2023-02-14T16:35:27.849Z,102557.39
2023-02-14T16:37:40.037Z,102557.05
2023-02-14T16:39:54.650Z,102559.30
2023-02-14T16:42:06.592Z,102558.52
2023-02-14T16:44:20.127Z,102561.27
2023-02-14T16:46:35.272Z,102561.29
2023-02-14T16:48:51.904Z,102557.66
2023-02-14T16:51:03.993Z,102559.92
2023-02-14T16:53:28.585Z,102564.77
2023-02-14T16:55:41.291Z,102565.67
2023-02-14T16:57:53.499Z,102567.02
2023-02-14T17:00:06.977Z,102562.80
2023-02-14T17:02:19.321Z,102562.28
2023-02-14T17:04:31.731Z,102564.27
2023-02-14T17:06:49.606Z,102564.80
2023-02-14T17:09:07.231Z,102565.50
2023-02-14T17:11:20.180Z,102567.73
2023-02-14T17:13:36.512Z,102567.13
2023-02-14T17:15:49.676Z,102570.69
2023-02-14T17:18:07.695Z,102570.41
2023-02-14T17:20:22.126Z,102569.11
2023-02-14T17:22:35.703Z,102569.23
2023-02-14T17:24:47.641Z,102570.71
2023-02-14T17:26:59.794Z,102572.33
2023-02-14T17:29:12.562Z,102574.63
2023-02-14T17:31:28.839Z,102574.62
2023-02-14T17:33:40.942Z,102570.52
2023-02-14T17:35:53.348Z,102571.90
2023-02-14T17:38:05.446Z,102568.30
2023-02-14T17:40:17.333Z,102574.73
2023-02-14T17:42:31.788Z,102573.79
2023-02-14T17:44:43.476Z,102571.77
2023-02-14T17:46:55.674Z,102573.08
2023-02-14T17:49:10.746Z,102571.66
2023-02-14T17:51:24.742Z,102572.15
2023-02-14T17:53:41.789Z,102573.48
2023-02-14T17:55:58.299Z,102573.10
2023-02-14T17:58:12.600Z,102568.45
2023-02-14T18:00:25.664Z,102570.94
2023-02-14T18:02:37.387Z,102567.94
2023-02-14T18:04:50.166Z,102560.50
2023-02-14T18:07:02.145Z,102565.46
2023-02-14T18:09:14.265Z,102568.46
2023-02-14T18:11:28.118Z,102561.27
2023-02-14T18:13:40.196Z,102557.92
2023-02-14T18:15:54.645Z,102558.91
2023-02-14T18:18:11.535Z,102561.58
2023-02-14T18:20:23.758Z,102564.81
2023-02-14T18:22:37.218Z,102563.59
2023-02-14T18:24:50.102Z,102561.42
2023-02-14T18:27:06.296Z,102556.33
2023-02-14T18:29:19.620Z,102561.67
2023-02-14T18:31:37.510Z,102564.10
2023-02-14T18:33:50.902Z,102561.52
2023-02-14T18:36:12.180Z,102562.11
2023-02-14T18:38:24.420Z,102565.69
2023-02-14T18:40:37.995Z,102564.29
2023-02-14T18:42:49.811Z,102569.41
2023-02-14T18:45:02.220Z,102564.78
2023-02-14T18:47:20.826Z,102564.14
2023-02-14T18:49:33.177Z,102563.02
2023-02-14T18:51:45.985Z,102561.87
2023-02-14T18:54:01.428Z,102563.96
2023-02-14T18:56:18.102Z,102564.95
2023-02-14T18:58:29.645Z,102558.36
2023-02-14T19:00:41.509Z,102559.85
2023-02-14T19:02:53.943Z,102557.49
2023-02-14T19:05:08.089Z,102554.08
2023-02-14T19:07:19.573Z,102550.83
2023-02-14T19:09:39.040Z,102550.68
2023-02-14T19:11:50.935Z,102555.14
2023-02-14T19:14:05.369Z,102547.98
2023-02-14T19:16:20.866Z,102543.66
2023-02-14T19:18:32.860Z,102538.73
2023-02-14T19:20:44.652Z,102544.19
2023-02-14T19:22:56.867Z,102542.36
2023-02-14T19:25:09.100Z,102536.95
2023-02-14T19:27:24.899Z,102538.64
2023-02-14T19:29:38.364Z,102539.58
2023-02-14T19:31:54.855Z,102545.11
2023-02-14T19:34:14.715Z,102546.52
2023-02-14T19:36:26.946Z,102541.69
2023-02-14T19:38:40.813Z,102542.66
2023-02-14T19:40:52.879Z,102540.58
2023-02-14T19:43:05.896Z,102546.39
2023-02-14T19:45:18.303Z,102549.17
2023-02-14T19:47:45.851Z,102547.92
2023-02-14T19:50:00.522Z,102546.55
2023-02-14T19:52:25.647Z,102547.52
2023-02-14T19:54:39.295Z,102546.72
2023-02-14T19:56:53.375Z,102550.35
2023-02-14T19:59:09.620Z,102553.27
2023-02-14T20:01:36.226Z,102546.13
2023-02-14T20:03:49.555Z,102547.79
2023-02-14T20:06:02.113Z,102551.28
2023-02-14T20:08:14.160Z,102552.86
2023-02-14T20:10:26.055Z,102552.36
2023-02-14T20:12:38.701Z,102552.56
2023-02-14T20:14:54.749Z,102548.85
2023-02-14T20:17:07.786Z,102547.71
2023-02-14T20:19:22.776Z,102547.58
2023-02-14T20:21:35.240Z,102548.63
2023-02-14T20:23:47.028Z,102545.69
2023-02-14T20:25:59.023Z,102546.66
2023-02-14T20:28:11.438Z,102544.58
2023-02-14T20:30:23.685Z,102545.27
2023-02-14T20:32:36.747Z,102543.01
2023-02-14T20:34:51.613Z,102541.13
2023-02-14T20:37:05.595Z,102542.90
2023-02-14T20:39:18.062Z,102541.05
2023-02-14T20:41:35.988Z,102541.77
2023-02-14T20:43:48.230Z,102541.65
2023-02-14T20:46:02.001Z,102536.20
2023-02-14T20:48:14.020Z,102535.70
2023-02-14T20:50:26.015Z,102531.27
2023-02-14T20:52:37.914Z,102532.42
2023-02-14T20:54:49.709Z,102529.16
2023-02-14T20:57:02.001Z,102533.29
2023-02-14T20:59:14.301Z,102532.35
2023-02-14T21:01:28.756Z,102532.09
2023-02-14T21:03:47.340Z,102536.96
2023-02-14T21:06:00.021Z,102534.38
2023-02-14T21:08:12.114Z,102526.50
2023-02-14T21:10:23.902Z,102530.63
2023-02-14T21:12:35.902Z,102525.35
2023-02-14T21:14:47.890Z,102523.27
2023-02-14T21:17:00.343Z,102524.03
2023-02-14T21:19:12.704Z,102524.41
2023-02-14T21:21:33.791Z,102522.21
2023-02-14T21:23:51.538Z,102521.58
2023-02-14T21:26:03.820Z,102521.84
2023-02-14T21:28:15.601Z,102520.00
2023-02-14T21:30:31.115Z,102516.05
2023-02-14T21:32:43.103Z,102510.81
2023-02-14T21:34:55.556Z,102508.81
2023-02-14T21:37:07.815Z,102507.40
2023-02-14T21:39:25.558Z,102507.36
2023-02-14T21:41:37.526Z,102504.17
2023-02-14T21:43:55.131Z,102501.90
2023-02-14T21:46:09.360Z,102503.57
2023-02-14T21:48:40.148Z,102500.19
2023-02-14T21:50:52.036Z,102494.90
2023-02-14T21:53:07.619Z,102496.88
2023-02-14T21:55:19.825Z,102495.84
2023-02-14T21:57:31.911Z,102500.28
2023-02-14T21:59:43.802Z,102498.80
2023-02-14T22:01:55.935Z,102499.60
2023-02-14T22:04:10.869Z,102501.36
2023-02-14T22:06:22.880Z,102498.94
2023-02-14T22:08:34.854Z,102498.03
2023-02-14T22:10:47.262Z,102496.99
2023-02-14T22:12:59.148Z,102493.42
2023-02-14T22:15:10.941Z,102494.55
2023-02-14T22:17:23.141Z,102497.86
2023-02-14T22:19:36.883Z,102497.23
2023-02-14T22:21:49.278Z,102497.80
2023-02-14T22:24:01.790Z,102496.88
2023-02-14T22:26:21.718Z,102495.31
2023-02-14T22:28:33.480Z,102496.51
2023-02-14T22:30:45.242Z,102496.02
2023-02-14T22:32:57.040Z,102493.66
2023-02-14T22:35:08.821Z,102493.67
2023-02-14T22:37:21.020Z,102491.42
2023-02-14T22:39:33.025Z,102488.70
2023-02-14T22:41:45.220Z,102488.41
2023-02-14T22:43:57.729Z,102484.98
2023-02-14T22:46:12.653Z,102483.08
2023-02-14T22:48:24.372Z,102480.95
2023-02-14T22:50:36.366Z,102478.27
2023-02-14T22:52:48.463Z,102478.40
2023-02-14T22:55:00.361Z,102477.39
2023-02-14T22:57:11.968Z,102475.47
2023-02-14T22:59:26.446Z,102473.23
2023-02-14T23:01:38.321Z,102470.30
2023-02-14T23:03:54.795Z,102467.52
2023-02-14T23:06:07.085Z,102466.27
2023-02-14T23:08:18.982Z,102458.48
2023-02-14T23:10:31.281Z,102460.17
2023-02-14T23:13:02.118Z,102462.00
2023-02-14T23:15:32.696Z,102459.45
2023-02-14T23:18:03.585Z,102453.77
2023-02-14T23:20:34.217Z,102451.80
2023-02-14T23:22:46.523Z,102452.99
2023-02-14T23:25:00.989Z,102451.11
2023-02-14T23:27:14.193Z,102446.45
2023-02-14T23:29:27.008Z,102441.36
2023-02-14T23:31:39.247Z,102441.12
2023-02-14T23:33:52.291Z,102442.31
2023-02-14T23:36:04.841Z,102438.92
2023-02-14T23:38:16.939Z,102443.83
2023-02-14T23:40:28.621Z,102442.27
2023-02-14T23:42:40.314Z,102447.71
2023-02-14T23:44:52.203Z,102450.70
2023-02-14T23:47:06.963Z,102450.77
2023-02-14T23:49:19.265Z,102446.68
2023-02-14T23:51:30.906Z,102449.38
2023-02-14T23:53:43.259Z,102443.92
2023-02-14T23:56:01.166Z,102444.48
2023-02-14T23:58:13.285Z,102447.27
